Aviation Digital Data Service (ADDS)

Output produced by METARs form (0810 UTC 30 October 2020)
found at http://www.aviationweather.gov/metar/data/
 
METAR text: KIND 300754Z 34018G27KT 10SM BKN016 04/01 A3007 RMK AO2 PK WND 34027/0753 SLP186 T00440011
Conditions at: KIND (INDIANAPOLIS , IN, US) observed 0754 UTC 30 October 2020
Temperature: 4.4°C (40°F)
Dewpoint: 1.1°C (34°F) [RH = 79%]
Pressure (altimeter): 30.07 inches Hg (1018.4 mb)
[Sea-level pressure: 1018.6 mb]
Winds: from the NNW (340 degrees) at 21 MPH (18 knots; 9.3 m/s)
gusting to 31 MPH (27 knots; 13.9 m/s)
Visibility: 10 or more miles (16+ km)
Ceiling: 1600 feet AGL
Clouds: broken clouds at 1600 feet AGL
Weather: no significant weather observed at this time

METAR text: KIND 300654Z 33013G21KT 10SM BKN018 BKN032 BKN050 05/02 A3005 RMK AO2 SLP179 T00500022
Conditions at: KIND (INDIANAPOLIS , IN, US) observed 0654 UTC 30 October 2020
Temperature: 5.0°C (41°F)
Dewpoint: 2.2°C (36°F) [RH = 82%]
Pressure (altimeter): 30.05 inches Hg (1017.7 mb)
[Sea-level pressure: 1017.9 mb]
Winds: from the NNW (330 degrees) at 15 MPH (13 knots; 6.7 m/s)
gusting to 24 MPH (21 knots; 10.8 m/s)
Visibility: 10 or more miles (16+ km)
Ceiling: 1800 feet AGL
Clouds: broken clouds at 1800 feet AGL
broken clouds at 3200 feet AGL
broken clouds at 5000 feet AGL
Weather: no significant weather observed at this time

METAR text: KIND 300652Z 33013G21KT 10SM BKN018 BKN032 BKN050 05/02 A3005 RMK AO2
Conditions at: KIND (INDIANAPOLIS , IN, US) observed 0652 UTC 30 October 2020
Temperature: 5.0°C (41°F)
Dewpoint: 2.0°C (36°F) [RH = 81%]
Pressure (altimeter): 30.05 inches Hg (1017.7 mb)
Winds: from the NNW (330 degrees) at 15 MPH (13 knots; 6.7 m/s)
gusting to 24 MPH (21 knots; 10.8 m/s)
Visibility: 10 or more miles (16+ km)
Ceiling: 1800 feet AGL
Clouds: broken clouds at 1800 feet AGL
broken clouds at 3200 feet AGL
broken clouds at 5000 feet AGL
Weather: no significant weather observed at this time

METAR text: KIND 300554Z 33015G20KT 10SM SCT031 OVC050 06/03 A3002 RMK AO2 SLP169 T00560028 10083 20056 51024
Conditions at: KIND (INDIANAPOLIS , IN, US) observed 0554 UTC 30 October 2020
Temperature: 5.6°C (42°F)
Dewpoint: 2.8°C (37°F) [RH = 82%]
Pressure (altimeter): 30.02 inches Hg (1016.7 mb)
[Sea-level pressure: 1016.9 mb]
Winds: from the NNW (330 degrees) at 17 MPH (15 knots; 7.7 m/s)
gusting to 23 MPH (20 knots; 10.3 m/s)
Visibility: 10 or more miles (16+ km)
Ceiling: 5000 feet AGL
Clouds: scattered clouds at 3100 feet AGL
overcast cloud deck at 5000 feet AGL
Weather: no significant weather observed at this time

METAR text: KIND 300528Z 33014KT 10SM SCT030 OVC050 06/02 A3001 RMK AO2 T00610022
Conditions at: KIND (INDIANAPOLIS , IN, US) observed 0528 UTC 30 October 2020
Temperature: 6.1°C (43°F)
Dewpoint: 2.2°C (36°F) [RH = 76%]
Pressure (altimeter): 30.01 inches Hg (1016.3 mb)
Winds: from the NNW (330 degrees) at 16 MPH (14 knots; 7.2 m/s)
Visibility: 10 or more miles (16+ km)
Ceiling: 5000 feet AGL
Clouds: scattered clouds at 3000 feet AGL
overcast cloud deck at 5000 feet AGL
Weather: no significant weather observed at this time

METAR text: KIND 300454Z 33010KT 10SM OVC028 07/03 A3001 RMK AO2 SLP163 T00670028 401000067
Conditions at: KIND (INDIANAPOLIS , IN, US) observed 0454 UTC 30 October 2020
Temperature: 6.7°C (44°F)
Dewpoint: 2.8°C (37°F) [RH = 76%]
Pressure (altimeter): 30.01 inches Hg (1016.3 mb)
[Sea-level pressure: 1016.3 mb]
Winds: from the NNW (330 degrees) at 12 MPH (10 knots; 5.1 m/s)
Visibility: 10 or more miles (16+ km)
Ceiling: 2800 feet AGL
Clouds: overcast cloud deck at 2800 feet AGL
Weather: no significant weather observed at this time

METAR text: KIND 300354Z 35012KT 10SM OVC020 07/04 A2998 RMK AO2 SLP156 T00720039
Conditions at: KIND (INDIANAPOLIS , IN, US) observed 0354 UTC 30 October 2020
Temperature: 7.2°C (45°F)
Dewpoint: 3.9°C (39°F) [RH = 80%]
Pressure (altimeter): 29.98 inches Hg (1015.3 mb)
[Sea-level pressure: 1015.6 mb]
Winds: from the N (350 degrees) at 14 MPH (12 knots; 6.2 m/s)
Visibility: 10 or more miles (16+ km)
Ceiling: 2000 feet AGL
Clouds: overcast cloud deck at 2000 feet AGL
Weather: no significant weather observed at this time

METAR text: KIND 300254Z 35010G18KT 10SM BKN019 OVC025 07/04 A2995 RMK AO2 SLP144 T00720039 51038
Conditions at: KIND (INDIANAPOLIS , IN, US) observed 0254 UTC 30 October 2020
Temperature: 7.2°C (45°F)
Dewpoint: 3.9°C (39°F) [RH = 80%]
Pressure (altimeter): 29.95 inches Hg (1014.3 mb)
[Sea-level pressure: 1014.4 mb]
Winds: from the N (350 degrees) at 12 MPH (10 knots; 5.1 m/s)
gusting to 21 MPH (18 knots; 9.3 m/s)
Visibility: 10 or more miles (16+ km)
Ceiling: 1900 feet AGL
Clouds: broken clouds at 1900 feet AGL
overcast cloud deck at 2500 feet AGL
Weather: no significant weather observed at this time

METAR text: KIND 300154Z 01009KT 10SM SCT022 BKN028 07/04 A2991 RMK AO2 SLP130 T00720039
Conditions at: KIND (INDIANAPOLIS , IN, US) observed 0154 UTC 30 October 2020
Temperature: 7.2°C (45°F)
Dewpoint: 3.9°C (39°F) [RH = 80%]
Pressure (altimeter): 29.91 inches Hg (1013.0 mb)
[Sea-level pressure: 1013.0 mb]
Winds: from the N (10 degrees) at 10 MPH (9 knots; 4.6 m/s)
Visibility: 10 or more miles (16+ km)
Ceiling: 2800 feet AGL
Clouds: scattered clouds at 2200 feet AGL
broken clouds at 2800 feet AGL
Weather: no significant weather observed at this time

METAR text: KIND 300134Z 36008G17KT 10SM BKN022 07/04 A2990 RMK AO2 T00720039
Conditions at: KIND (INDIANAPOLIS , IN, US) observed 0134 UTC 30 October 2020
Temperature: 7.2°C (45°F)
Dewpoint: 3.9°C (39°F) [RH = 80%]
Pressure (altimeter): 29.90 inches Hg (1012.6 mb)
Winds: from the N (360 degrees) at 9 MPH (8 knots; 4.1 m/s)
gusting to 20 MPH (17 knots; 8.7 m/s)
Visibility: 10 or more miles (16+ km)
Ceiling: 2200 feet AGL
Clouds: broken clouds at 2200 feet AGL
Weather: no significant weather observed at this time

METAR text: KIND 300054Z 35014G20KT 10SM FEW150 07/04 A2988 RMK AO2 SLP120 T00720039
Conditions at: KIND (INDIANAPOLIS , IN, US) observed 0054 UTC 30 October 2020
Temperature: 7.2°C (45°F)
Dewpoint: 3.9°C (39°F) [RH = 80%]
Pressure (altimeter): 29.88 inches Hg (1011.9 mb)
[Sea-level pressure: 1012.0 mb]
Winds: from the N (350 degrees) at 16 MPH (14 knots; 7.2 m/s)
gusting to 23 MPH (20 knots; 10.3 m/s)
Visibility: 10 or more miles (16+ km)
Ceiling: at least 12,000 feet AGL
Clouds: few clouds at 15000 feet AGL
Weather: no significant weather observed at this time

METAR text: KIND 292354Z 35012KT 10SM BKN036 BKN150 08/04 A2984 RMK AO2 SLP105 60003 T00830044 10089 20078 53025
Conditions at: KIND (INDIANAPOLIS , IN, US) observed 2354 UTC 29 October 2020
Temperature: 8.3°C (47°F)
Dewpoint: 4.4°C (40°F) [RH = 76%]
Pressure (altimeter): 29.84 inches Hg (1010.6 mb)
[Sea-level pressure: 1010.5 mb]
Winds: from the N (350 degrees) at 14 MPH (12 knots; 6.2 m/s)
Visibility: 10 or more miles (16+ km)
Ceiling: 3600 feet AGL
Clouds: broken clouds at 3600 feet AGL
broken clouds at 15000 feet AGL
Weather: no significant weather observed at this time

METAR text: KIND 292254Z 35006KT 10SM FEW042 BKN090 BKN150 08/06 A2979 RMK AO2 RAE47 SLP091 P0002 T00830061
Conditions at: KIND (INDIANAPOLIS , IN, US) observed 2254 UTC 29 October 2020
Temperature: 8.3°C (47°F)
Dewpoint: 6.1°C (43°F) [RH = 86%]
Pressure (altimeter): 29.79 inches Hg (1008.9 mb)
[Sea-level pressure: 1009.1 mb]
Winds: from the N (350 degrees) at 7 MPH (6 knots; 3.1 m/s)
Visibility: 10 or more miles (16+ km)
Ceiling: 9000 feet AGL
Clouds: few clouds at 4200 feet AGL
broken clouds at 9000 feet AGL
broken clouds at 15000 feet AGL
Weather: no significant weather observed at this time

METAR text: KIND 292154Z 36007KT 10SM -RA FEW090 OVC120 08/06 A2976 RMK AO2 RAE30B51 SLP080 P0000 T00830056
Conditions at: KIND (INDIANAPOLIS , IN, US) observed 2154 UTC 29 October 2020
Temperature: 8.3°C (47°F)
Dewpoint: 5.6°C (42°F) [RH = 83%]
Pressure (altimeter): 29.76 inches Hg (1007.9 mb)
[Sea-level pressure: 1008.0 mb]
Winds: from the N (360 degrees) at 8 MPH (7 knots; 3.6 m/s)
Visibility: 10 or more miles (16+ km)
Ceiling: 12000 feet AGL
Clouds: few clouds at 9000 feet AGL
overcast cloud deck at 12000 feet AGL
Weather: -RA  (light rain)

METAR text: KIND 292054Z 02008KT 10SM -RA BKN070 OVC100 08/04 A2976 RMK AO2 SLP079 P0001 60001 T00780044 53014
Conditions at: KIND (INDIANAPOLIS , IN, US) observed 2054 UTC 29 October 2020
Temperature: 7.8°C (46°F)
Dewpoint: 4.4°C (40°F) [RH = 79%]
Pressure (altimeter): 29.76 inches Hg (1007.9 mb)
[Sea-level pressure: 1007.9 mb]
Winds: from the NNE (20 degrees) at 9 MPH (8 knots; 4.1 m/s)
Visibility: 10 or more miles (16+ km)
Ceiling: 7000 feet AGL
Clouds: broken clouds at 7000 feet AGL
overcast cloud deck at 10000 feet AGL
Weather: -RA  (light rain)

METAR text: KIND 291954Z 36008KT 10SM -RA BKN060 OVC100 08/04 A2973 RMK AO2 SLP069 P0000 T00830044
Conditions at: KIND (INDIANAPOLIS , IN, US) observed 1954 UTC 29 October 2020
Temperature: 8.3°C (47°F)
Dewpoint: 4.4°C (40°F) [RH = 76%]
Pressure (altimeter): 29.73 inches Hg (1006.9 mb)
[Sea-level pressure: 1006.9 mb]
Winds: from the N (360 degrees) at 9 MPH (8 knots; 4.1 m/s)
Visibility: 10 or more miles (16+ km)
Ceiling: 6000 feet AGL
Clouds: broken clouds at 6000 feet AGL
overcast cloud deck at 10000 feet AGL
Weather: -RA  (light rain)

METAR text: KIND 291854Z 36012KT 10SM -RA FEW015 BKN060 OVC070 08/04 A2972 RMK AO2 RAB25 SLP066 P0000 T00830044
Conditions at: KIND (INDIANAPOLIS , IN, US) observed 1854 UTC 29 October 2020
Temperature: 8.3°C (47°F)
Dewpoint: 4.4°C (40°F) [RH = 76%]
Pressure (altimeter): 29.72 inches Hg (1006.5 mb)
[Sea-level pressure: 1006.6 mb]
Winds: from the N (360 degrees) at 14 MPH (12 knots; 6.2 m/s)
Visibility: 10 or more miles (16+ km)
Ceiling: 6000 feet AGL
Clouds: few clouds at 1500 feet AGL
broken clouds at 6000 feet AGL
overcast cloud deck at 7000 feet AGL
Weather: -RA  (light rain)

METAR text: KIND 291754Z 01010KT 10SM FEW014 OVC060 09/06 A2972 RMK AO2 SLP064 60016 T00890056 10089 20072 50000
Conditions at: KIND (INDIANAPOLIS , IN, US) observed 1754 UTC 29 October 2020
Temperature: 8.9°C (48°F)
Dewpoint: 5.6°C (42°F) [RH = 80%]
Pressure (altimeter): 29.72 inches Hg (1006.5 mb)
[Sea-level pressure: 1006.4 mb]
Winds: from the N (10 degrees) at 12 MPH (10 knots; 5.1 m/s)
Visibility: 10 or more miles (16+ km)
Ceiling: 6000 feet AGL
Clouds: few clouds at 1400 feet AGL
overcast cloud deck at 6000 feet AGL
Weather: no significant weather observed at this time

METAR text: KIND 291735Z 03011KT 10SM SCT017 OVC060 08/06 A2972 RMK AO2 T00830056
Conditions at: KIND (INDIANAPOLIS , IN, US) observed 1735 UTC 29 October 2020
Temperature: 8.3°C (47°F)
Dewpoint: 5.6°C (42°F) [RH = 83%]
Pressure (altimeter): 29.72 inches Hg (1006.5 mb)
Winds: from the NNE (30 degrees) at 13 MPH (11 knots; 5.7 m/s)
Visibility: 10 or more miles (16+ km)
Ceiling: 6000 feet AGL
Clouds: scattered clouds at 1700 feet AGL
overcast cloud deck at 6000 feet AGL
Weather: no significant weather observed at this time

METAR text: KIND 291711Z 03015KT 10SM FEW012 BKN017 OVC049 08/06 A2972 RMK AO2 T00830056
Conditions at: KIND (INDIANAPOLIS , IN, US) observed 1711 UTC 29 October 2020
Temperature: 8.3°C (47°F)
Dewpoint: 5.6°C (42°F) [RH = 83%]
Pressure (altimeter): 29.72 inches Hg (1006.5 mb)
Winds: from the NNE (30 degrees) at 17 MPH (15 knots; 7.7 m/s)
Visibility: 10 or more miles (16+ km)
Ceiling: 1700 feet AGL
Clouds: few clouds at 1200 feet AGL
broken clouds at 1700 feet AGL
overcast cloud deck at 4900 feet AGL
Weather: no significant weather observed at this time

METAR text: KIND 291654Z 03015KT 9SM BKN014 OVC049 08/07 A2972 RMK AO2 RAE07 SLP065 P0000 T00830067
Conditions at: KIND (INDIANAPOLIS , IN, US) observed 1654 UTC 29 October 2020
Temperature: 8.3°C (47°F)
Dewpoint: 6.7°C (44°F) [RH = 90%]
Pressure (altimeter): 29.72 inches Hg (1006.5 mb)
[Sea-level pressure: 1006.5 mb]
Winds: from the NNE (30 degrees) at 17 MPH (15 knots; 7.7 m/s)
Visibility: 9 miles (14 km)
Ceiling: 1400 feet AGL
Clouds: broken clouds at 1400 feet AGL
overcast cloud deck at 4900 feet AGL
Weather: no significant weather observed at this time

METAR text: KIND 291624Z 04014KT 9SM BKN014 OVC050 08/06 A2972 RMK AO2 RAE07 P0000 T00780061
Conditions at: KIND (INDIANAPOLIS , IN, US) observed 1624 UTC 29 October 2020
Temperature: 7.8°C (46°F)
Dewpoint: 6.1°C (43°F) [RH = 89%]
Pressure (altimeter): 29.72 inches Hg (1006.5 mb)
Winds: from the NE (40 degrees) at 16 MPH (14 knots; 7.2 m/s)
Visibility: 9 miles (14 km)
Ceiling: 1400 feet AGL
Clouds: broken clouds at 1400 feet AGL
overcast cloud deck at 5000 feet AGL
Weather: no significant weather observed at this time

METAR text: KIND 291554Z 01013KT 9SM -RA OVC009 07/06 A2973 RMK AO2 SLP067 P0000 T00720061
Conditions at: KIND (INDIANAPOLIS , IN, US) observed 1554 UTC 29 October 2020
Temperature: 7.2°C (45°F)
Dewpoint: 6.1°C (43°F) [RH = 93%]
Pressure (altimeter): 29.73 inches Hg (1006.9 mb)
[Sea-level pressure: 1006.7 mb]
Winds: from the N (10 degrees) at 15 MPH (13 knots; 6.7 m/s)
Visibility: 9 miles (14 km)
Ceiling: 900 feet AGL
Clouds: overcast cloud deck at 900 feet AGL
Weather: -RA  (light rain)

METAR text: KIND 291454Z 02014KT 8SM -RA OVC009 07/06 A2972 RMK AO2 SLP064 P0003 60016 T00720061 50005
Conditions at: KIND (INDIANAPOLIS , IN, US) observed 1454 UTC 29 October 2020
Temperature: 7.2°C (45°F)
Dewpoint: 6.1°C (43°F) [RH = 93%]
Pressure (altimeter): 29.72 inches Hg (1006.5 mb)
[Sea-level pressure: 1006.4 mb]
Winds: from the NNE (20 degrees) at 16 MPH (14 knots; 7.2 m/s)
Visibility: 8 miles (13 km)
Ceiling: 900 feet AGL
Clouds: overcast cloud deck at 900 feet AGL
Weather: -RA  (light rain)

METAR text: KIND 291437Z 03011KT 6SM -RA BR BKN008 BKN012 OVC032 07/06 A2971 RMK AO2 P0003 T00720061
Conditions at: KIND (INDIANAPOLIS , IN, US) observed 1437 UTC 29 October 2020
Temperature: 7.2°C (45°F)
Dewpoint: 6.1°C (43°F) [RH = 93%]
Pressure (altimeter): 29.71 inches Hg (1006.2 mb)
Winds: from the NNE (30 degrees) at 13 MPH (11 knots; 5.7 m/s)
Visibility: 6 miles (10 km)
Ceiling: 800 feet AGL
Clouds: broken clouds at 800 feet AGL
broken clouds at 1200 feet AGL
overcast cloud deck at 3200 feet AGL
Weather: -RA BR  (light rain, mist)

METAR text: KIND 291411Z 03010KT 6SM -RA BR SCT008 SCT012 OVC031 07/06 A2973 RMK AO2 P0001 T00720061
Conditions at: KIND (INDIANAPOLIS , IN, US) observed 1411 UTC 29 October 2020
Temperature: 7.2°C (45°F)
Dewpoint: 6.1°C (43°F) [RH = 93%]
Pressure (altimeter): 29.73 inches Hg (1006.9 mb)
Winds: from the NNE (30 degrees) at 12 MPH (10 knots; 5.1 m/s)
Visibility: 6 miles (10 km)
Ceiling: 3100 feet AGL
Clouds: scattered clouds at 800 feet AGL
scattered clouds at 1200 feet AGL
overcast cloud deck at 3100 feet AGL
Weather: -RA BR  (light rain, mist)

METAR text: KIND 291354Z 03011KT 6SM -RA BR SCT008 SCT013 OVC029 07/06 A2972 RMK AO2 SLP066 P0007 T00720061
Conditions at: KIND (INDIANAPOLIS , IN, US) observed 1354 UTC 29 October 2020
Temperature: 7.2°C (45°F)
Dewpoint: 6.1°C (43°F) [RH = 93%]
Pressure (altimeter): 29.72 inches Hg (1006.5 mb)
[Sea-level pressure: 1006.6 mb]
Winds: from the NNE (30 degrees) at 13 MPH (11 knots; 5.7 m/s)
Visibility: 6 miles (10 km)
Ceiling: 2900 feet AGL
Clouds: scattered clouds at 800 feet AGL
scattered clouds at 1300 feet AGL
overcast cloud deck at 2900 feet AGL
Weather: -RA BR  (light rain, mist)

METAR text: KIND 291347Z 04011KT 5SM -RA BR SCT008 SCT013 OVC029 07/06 A2973 RMK AO2 PRESRR P0006 T00720061
Conditions at: KIND (INDIANAPOLIS , IN, US) observed 1347 UTC 29 October 2020
Temperature: 7.2°C (45°F)
Dewpoint: 6.1°C (43°F) [RH = 93%]
Pressure (altimeter): 29.73 inches Hg (1006.9 mb)
Winds: from the NE (40 degrees) at 13 MPH (11 knots; 5.7 m/s)
Visibility: 5 miles ( 8 km)
Ceiling: 2900 feet AGL
Clouds: scattered clouds at 800 feet AGL
scattered clouds at 1300 feet AGL
overcast cloud deck at 2900 feet AGL
Weather: -RA BR  (light rain, mist)

METAR text: KIND 291302Z 03012KT 4SM -RA BR BKN008 OVC100 07/06 A2971 RMK AO2 P0002 T00720061
Conditions at: KIND (INDIANAPOLIS , IN, US) observed 1302 UTC 29 October 2020
Temperature: 7.2°C (45°F)
Dewpoint: 6.1°C (43°F) [RH = 93%]
Pressure (altimeter): 29.71 inches Hg (1006.2 mb)
Winds: from the NNE (30 degrees) at 14 MPH (12 knots; 6.2 m/s)
Visibility: 4 miles ( 6 km)
Ceiling: 800 feet AGL
Clouds: broken clouds at 800 feet AGL
overcast cloud deck at 10000 feet AGL
Weather: -RA BR  (light rain, mist)

METAR text: KIND 291254Z 02014KT 2 1/2SM RA BR BKN010 BKN048 OVC075 07/06 A2972 RMK AO2 PK WND 04026/1216 SLP065 P0006 T00720061
Conditions at: KIND (INDIANAPOLIS , IN, US) observed 1254 UTC 29 October 2020
Temperature: 7.2°C (45°F)
Dewpoint: 6.1°C (43°F) [RH = 93%]
Pressure (altimeter): 29.72 inches Hg (1006.5 mb)
[Sea-level pressure: 1006.5 mb]
Winds: from the NNE (20 degrees) at 16 MPH (14 knots; 7.2 m/s)
Visibility: 2.50 miles (4.02 km)
Ceiling: 1000 feet AGL
Clouds: broken clouds at 1000 feet AGL
broken clouds at 4800 feet AGL
overcast cloud deck at 7500 feet AGL
Weather: RA BR  (moderate rain, mist)

METAR text: KIND 291251Z 03013KT 2 1/2SM RA BR BKN010 BKN048 OVC075 07/06 A2972 RMK AO2 PK WND 04026/1216 P0005
Conditions at: KIND (INDIANAPOLIS , IN, US) observed 1251 UTC 29 October 2020
Temperature: 7.0°C (45°F)
Dewpoint: 6.0°C (43°F) [RH = 93%]
Pressure (altimeter): 29.72 inches Hg (1006.5 mb)
Winds: from the NNE (30 degrees) at 15 MPH (13 knots; 6.7 m/s)
Visibility: 2.50 miles (4.02 km)
Ceiling: 1000 feet AGL
Clouds: broken clouds at 1000 feet AGL
broken clouds at 4800 feet AGL
overcast cloud deck at 7500 feet AGL
Weather: RA BR  (moderate rain, mist)

METAR text: KIND 291154Z 04019G25KT 10SM -RA BKN010 BKN026 OVC036 08/06 A2970 RMK AO2 PK WND 02026/1120 SLP059 P0010 60079 70095 T00780061 10100 20078 58011
Conditions at: KIND (INDIANAPOLIS , IN, US) observed 1154 UTC 29 October 2020
Temperature: 7.8°C (46°F)
Dewpoint: 6.1°C (43°F) [RH = 89%]
Pressure (altimeter): 29.70 inches Hg (1005.8 mb)
[Sea-level pressure: 1005.9 mb]
Winds: from the NE (40 degrees) at 22 MPH (19 knots; 9.8 m/s)
gusting to 29 MPH (25 knots; 12.9 m/s)
Visibility: 10 or more miles (16+ km)
Ceiling: 1000 feet AGL
Clouds: broken clouds at 1000 feet AGL
broken clouds at 2600 feet AGL
overcast cloud deck at 3600 feet AGL
Weather: -RA  (light rain)

METAR text: KIND 291137Z 03017G23KT 6SM -RA BR SCT010 BKN026 OVC037 08/07 A2971 RMK AO2 PK WND 02026/1120 P0009 T00830067
Conditions at: KIND (INDIANAPOLIS , IN, US) observed 1137 UTC 29 October 2020
Temperature: 8.3°C (47°F)
Dewpoint: 6.7°C (44°F) [RH = 90%]
Pressure (altimeter): 29.71 inches Hg (1006.2 mb)
Winds: from the NNE (30 degrees) at 20 MPH (17 knots; 8.7 m/s)
gusting to 26 MPH (23 knots; 11.8 m/s)
Visibility: 6 miles (10 km)
Ceiling: 2600 feet AGL
Clouds: scattered clouds at 1000 feet AGL
broken clouds at 2600 feet AGL
overcast cloud deck at 3700 feet AGL
Weather: -RA BR  (light rain, mist)

METAR text: KIND 291054Z 04019G24KT 5SM RA BR BKN007 OVC032 08/08 A2971 RMK AO2 SLP062 P0014 T00830078
Conditions at: KIND (INDIANAPOLIS , IN, US) observed 1054 UTC 29 October 2020
Temperature: 8.3°C (47°F)
Dewpoint: 7.8°C (46°F) [RH = 97%]
Pressure (altimeter): 29.71 inches Hg (1006.2 mb)
[Sea-level pressure: 1006.2 mb]
Winds: from the NE (40 degrees) at 22 MPH (19 knots; 9.8 m/s)
gusting to 28 MPH (24 knots; 12.3 m/s)
Visibility: 5 miles ( 8 km)
Ceiling: 700 feet AGL
Clouds: broken clouds at 700 feet AGL
overcast cloud deck at 3200 feet AGL
Weather: RA BR  (moderate rain, mist)

METAR text: KIND 290954Z 03014KT 4SM RA BR BKN006 OVC047 09/08 A2973 RMK AO2 SLP070 P0015 T00890083
Conditions at: KIND (INDIANAPOLIS , IN, US) observed 0954 UTC 29 October 2020
Temperature: 8.9°C (48°F)
Dewpoint: 8.3°C (47°F) [RH = 96%]
Pressure (altimeter): 29.73 inches Hg (1006.9 mb)
[Sea-level pressure: 1007.0 mb]
Winds: from the NNE (30 degrees) at 16 MPH (14 knots; 7.2 m/s)
Visibility: 4 miles ( 6 km)
Ceiling: 600 feet AGL
Clouds: broken clouds at 600 feet AGL
overcast cloud deck at 4700 feet AGL
Weather: RA BR  (moderate rain, mist)

METAR text: KIND 290854Z 02014KT 4SM RA BR OVC005 09/09 A2974 RMK AO2 SLP071 P0015 60040 T00940089 58029
Conditions at: KIND (INDIANAPOLIS , IN, US) observed 0854 UTC 29 October 2020
Temperature: 9.4°C (49°F)
Dewpoint: 8.9°C (48°F) [RH = 97%]
Pressure (altimeter): 29.74 inches Hg (1007.2 mb)
[Sea-level pressure: 1007.1 mb]
Winds: from the NNE (20 degrees) at 16 MPH (14 knots; 7.2 m/s)
Visibility: 4 miles ( 6 km)
Ceiling: 500 feet AGL
Clouds: overcast cloud deck at 500 feet AGL
Weather: RA BR  (moderate rain, mist)

METAR text: KIND 290754Z 02011KT 4SM RA BR BKN005 OVC013 09/09 A2977 RMK AO2 SLP082 P0012 T00940089
Conditions at: KIND (INDIANAPOLIS , IN, US) observed 0754 UTC 29 October 2020
Temperature: 9.4°C (49°F)
Dewpoint: 8.9°C (48°F) [RH = 97%]
Pressure (altimeter): 29.77 inches Hg (1008.2 mb)
[Sea-level pressure: 1008.2 mb]
Winds: from the NNE (20 degrees) at 13 MPH (11 knots; 5.7 m/s)
Visibility: 4 miles ( 6 km)
Ceiling: 500 feet AGL
Clouds: broken clouds at 500 feet AGL
overcast cloud deck at 1300 feet AGL
Weather: RA BR  (moderate rain, mist)

METAR text: KIND 290654Z 02008KT 3SM RA BR BKN006 OVC024 09/09 A2980 RMK AO2 SLP092 P0013 T00940089
Conditions at: KIND (INDIANAPOLIS , IN, US) observed 0654 UTC 29 October 2020
Temperature: 9.4°C (49°F)
Dewpoint: 8.9°C (48°F) [RH = 97%]
Pressure (altimeter): 29.80 inches Hg (1009.2 mb)
[Sea-level pressure: 1009.2 mb]
Winds: from the NNE (20 degrees) at 9 MPH (8 knots; 4.1 m/s)
Visibility: 3 miles ( 5 km)
Ceiling: 600 feet AGL
Clouds: broken clouds at 600 feet AGL
overcast cloud deck at 2400 feet AGL
Weather: RA BR  (moderate rain, mist)

METAR text: KIND 290601Z 05007KT 4SM RA BR BKN005 OVC055 09/09 A2983 RMK AO2 P0001 T00940089
Conditions at: KIND (INDIANAPOLIS , IN, US) observed 0601 UTC 29 October 2020
Temperature: 9.4°C (49°F)
Dewpoint: 8.9°C (48°F) [RH = 97%]
Pressure (altimeter): 29.83 inches Hg (1010.2 mb)
Winds: from the NE (50 degrees) at 8 MPH (7 knots; 3.6 m/s)
Visibility: 4 miles ( 6 km)
Ceiling: 500 feet AGL
Clouds: broken clouds at 500 feet AGL
overcast cloud deck at 5500 feet AGL
Weather: RA BR  (moderate rain, mist)

METAR text: KIND 290554Z 03006KT 4SM RA BR SCT004 BKN055 OVC080 10/09 A2983 RMK AO2 SLP101 P0009 60016 T01000089 10106 20100 56021
Conditions at: KIND (INDIANAPOLIS , IN, US) observed 0554 UTC 29 October 2020
Temperature: 10.0°C (50°F)
Dewpoint: 8.9°C (48°F) [RH = 93%]
Pressure (altimeter): 29.83 inches Hg (1010.2 mb)
[Sea-level pressure: 1010.1 mb]
Winds: from the NNE (30 degrees) at 7 MPH (6 knots; 3.1 m/s)
Visibility: 4 miles ( 6 km)
Ceiling: 5500 feet AGL
Clouds: scattered clouds at 400 feet AGL
broken clouds at 5500 feet AGL
overcast cloud deck at 8000 feet AGL
Weather: RA BR  (moderate rain, mist)

METAR text: KIND 290550Z 02006KT 4SM RA BR SCT004 BKN060 OVC080 10/09 A2983 RMK AO2 P0009
Conditions at: KIND (INDIANAPOLIS , IN, US) observed 0550 UTC 29 October 2020
Temperature: 10.0°C (50°F)
Dewpoint: 9.0°C (48°F) [RH = 93%]
Pressure (altimeter): 29.83 inches Hg (1010.2 mb)
Winds: from the NNE (20 degrees) at 7 MPH (6 knots; 3.1 m/s)
Visibility: 4 miles ( 6 km)
Ceiling: 6000 feet AGL
Clouds: scattered clouds at 400 feet AGL
broken clouds at 6000 feet AGL
overcast cloud deck at 8000 feet AGL
Weather: RA BR  (moderate rain, mist)

METAR text: KIND 290454Z 04005KT 8SM -RA SCT050 BKN060 OVC100 10/09 A2985 RMK AO2 SLP109 P0005 T01000094 401110067
Conditions at: KIND (INDIANAPOLIS , IN, US) observed 0454 UTC 29 October 2020
Temperature: 10.0°C (50°F)
Dewpoint: 9.4°C (49°F) [RH = 96%]
Pressure (altimeter): 29.85 inches Hg (1010.9 mb)
[Sea-level pressure: 1010.9 mb]
Winds: from the NE (40 degrees) at 6 MPH (5 knots; 2.6 m/s)
Visibility: 8 miles (13 km)
Ceiling: 6000 feet AGL
Clouds: scattered clouds at 5000 feet AGL
broken clouds at 6000 feet AGL
overcast cloud deck at 10000 feet AGL
Weather: -RA  (light rain)

METAR text: KIND 290354Z 06005KT 6SM -RA BR SCT055 OVC075 10/09 A2989 RMK AO2 SLP122 P0002 T01000089
Conditions at: KIND (INDIANAPOLIS , IN, US) observed 0354 UTC 29 October 2020
Temperature: 10.0°C (50°F)
Dewpoint: 8.9°C (48°F) [RH = 93%]
Pressure (altimeter): 29.89 inches Hg (1012.3 mb)
[Sea-level pressure: 1012.2 mb]
Winds: from the ENE (60 degrees) at 6 MPH (5 knots; 2.6 m/s)
Visibility: 6 miles (10 km)
Ceiling: 7500 feet AGL
Clouds: scattered clouds at 5500 feet AGL
overcast cloud deck at 7500 feet AGL
Weather: -RA BR  (light rain, mist)

METAR text: KIND 290254Z 08006KT 10SM -RA FEW014 OVC070 11/08 A2993 RMK AO2 RAB38 SLP135 P0000 60000 T01060083 58014
Conditions at: KIND (INDIANAPOLIS , IN, US) observed 0254 UTC 29 October 2020
Temperature: 10.6°C (51°F)
Dewpoint: 8.3°C (47°F) [RH = 86%]
Pressure (altimeter): 29.93 inches Hg (1013.6 mb)
[Sea-level pressure: 1013.5 mb]
Winds: from the E (80 degrees) at 7 MPH (6 knots; 3.1 m/s)
Visibility: 10 or more miles (16+ km)
Ceiling: 7000 feet AGL
Clouds: few clouds at 1400 feet AGL
overcast cloud deck at 7000 feet AGL
Weather: -RA  (light rain)

METAR text: KIND 290154Z 10006KT 10SM BKN070 OVC190 10/08 A2993 RMK AO2 SLP138 T01000078
Conditions at: KIND (INDIANAPOLIS , IN, US) observed 0154 UTC 29 October 2020
Temperature: 10.0°C (50°F)
Dewpoint: 7.8°C (46°F) [RH = 86%]
Pressure (altimeter): 29.93 inches Hg (1013.6 mb)
[Sea-level pressure: 1013.8 mb]
Winds: from the E (100 degrees) at 7 MPH (6 knots; 3.1 m/s)
Visibility: 10 or more miles (16+ km)
Ceiling: 7000 feet AGL
Clouds: broken clouds at 7000 feet AGL
overcast cloud deck at 19000 feet AGL
Weather: no significant weather observed at this time

METAR text: KIND 290054Z 07006KT 10SM SCT070 OVC200 10/08 A2996 RMK AO2 SLP149 T01000078
Conditions at: KIND (INDIANAPOLIS , IN, US) observed 0054 UTC 29 October 2020
Temperature: 10.0°C (50°F)
Dewpoint: 7.8°C (46°F) [RH = 86%]
Pressure (altimeter): 29.96 inches Hg (1014.6 mb)
[Sea-level pressure: 1014.9 mb]
Winds: from the ENE (70 degrees) at 7 MPH (6 knots; 3.1 m/s)
Visibility: 10 or more miles (16+ km)
Ceiling: 20000 feet AGL
Clouds: scattered clouds at 7000 feet AGL
overcast cloud deck at 20000 feet AGL
Weather: no significant weather observed at this time

METAR text: KIND 282354Z 08005KT 10SM FEW030 BKN065 OVC170 11/08 A2997 RMK AO2 SLP150 T01060078 10111 20094 56014
Conditions at: KIND (INDIANAPOLIS , IN, US) observed 2354 UTC 28 October 2020
Temperature: 10.6°C (51°F)
Dewpoint: 7.8°C (46°F) [RH = 83%]
Pressure (altimeter): 29.97 inches Hg (1015.0 mb)
[Sea-level pressure: 1015.0 mb]
Winds: from the E (80 degrees) at 6 MPH (5 knots; 2.6 m/s)
Visibility: 10 or more miles (16+ km)
Ceiling: 6500 feet AGL
Clouds: few clouds at 3000 feet AGL
broken clouds at 6500 feet AGL
overcast cloud deck at 17000 feet AGL
Weather: no significant weather observed at this time

METAR text: KIND 282254Z 12006KT 10SM SCT017 OVC035 11/08 A2998 RMK AO2 SLP152 T01060078
Conditions at: KIND (INDIANAPOLIS , IN, US) observed 2254 UTC 28 October 2020
Temperature: 10.6°C (51°F)
Dewpoint: 7.8°C (46°F) [RH = 83%]
Pressure (altimeter): 29.98 inches Hg (1015.3 mb)
[Sea-level pressure: 1015.2 mb]
Winds: from the ESE (120 degrees) at 7 MPH (6 knots; 3.1 m/s)
Visibility: 10 or more miles (16+ km)
Ceiling: 3500 feet AGL
Clouds: scattered clouds at 1700 feet AGL
overcast cloud deck at 3500 feet AGL
Weather: no significant weather observed at this time

METAR text: KIND 282217Z 07003KT 10SM SCT017 OVC035 11/07 A3000 RMK AO2 T01060072
Conditions at: KIND (INDIANAPOLIS , IN, US) observed 2217 UTC 28 October 2020
Temperature: 10.6°C (51°F)
Dewpoint: 7.2°C (45°F) [RH = 79%]
Pressure (altimeter): 30.00 inches Hg (1016.0 mb)
Winds: from the ENE (70 degrees) at 3 MPH (3 knots; 1.5 m/s)
Visibility: 10 or more miles (16+ km)
Ceiling: 3500 feet AGL
Clouds: scattered clouds at 1700 feet AGL
overcast cloud deck at 3500 feet AGL
Weather: no significant weather observed at this time

METAR text: KIND 282154Z 08003KT 10SM BKN017 OVC037 11/07 A3000 RMK AO2 SLP161 T01060072
Conditions at: KIND (INDIANAPOLIS , IN, US) observed 2154 UTC 28 October 2020
Temperature: 10.6°C (51°F)
Dewpoint: 7.2°C (45°F) [RH = 79%]
Pressure (altimeter): 30.00 inches Hg (1016.0 mb)
[Sea-level pressure: 1016.1 mb]
Winds: from the E (80 degrees) at 3 MPH (3 knots; 1.5 m/s)
Visibility: 10 or more miles (16+ km)
Ceiling: 1700 feet AGL
Clouds: broken clouds at 1700 feet AGL
overcast cloud deck at 3700 feet AGL
Weather: no significant weather observed at this time

METAR text: KIND 282131Z 14003KT 10SM BKN015 OVC037 11/07 A3001 RMK AO2 T01060072
Conditions at: KIND (INDIANAPOLIS , IN, US) observed 2131 UTC 28 October 2020
Temperature: 10.6°C (51°F)
Dewpoint: 7.2°C (45°F) [RH = 79%]
Pressure (altimeter): 30.01 inches Hg (1016.3 mb)
Winds: from the SE (140 degrees) at 3 MPH (3 knots; 1.5 m/s)
Visibility: 10 or more miles (16+ km)
Ceiling: 1500 feet AGL
Clouds: broken clouds at 1500 feet AGL
overcast cloud deck at 3700 feet AGL
Weather: no significant weather observed at this time

METAR text: KIND 282054Z VRB03KT 10SM SCT015 OVC037 11/07 A3001 RMK AO2 SLP164 T01060072 56017
Conditions at: KIND (INDIANAPOLIS , IN, US) observed 2054 UTC 28 October 2020
Temperature: 10.6°C (51°F)
Dewpoint: 7.2°C (45°F) [RH = 79%]
Pressure (altimeter): 30.01 inches Hg (1016.3 mb)
[Sea-level pressure: 1016.4 mb]
Winds: variable direction winds at 3 MPH (3 knots; 1.5 m/s)
Visibility: 10 or more miles (16+ km)
Ceiling: 3700 feet AGL
Clouds: scattered clouds at 1500 feet AGL
overcast cloud deck at 3700 feet AGL
Weather: no significant weather observed at this time

Forecast for: KIND (INDIANAPOLIS , IN, US)
Text: KIND 300758Z 3008/3112 34010G17KT P6SM OVC020
Forecast period: 0800 to 1300 UTC 30 October 2020
Forecast type: FROM: standard forecast or significant change
Winds: from the NNW (340 degrees) at 12 MPH (10 knots; 5.1 m/s)
gusting to 20 MPH (17 knots; 8.7 m/s)
Visibility: 6 or more miles (10+ km)
Ceiling: 2000 feet AGL
Clouds: overcast cloud deck at 2000 feet AGL
Weather: no significant weather forecast for this period
Text: FM301300 34007KT P6SM OVC035
Forecast period: 1300 to 1700 UTC 30 October 2020
Forecast type: FROM: standard forecast or significant change
Winds: from the NNW (340 degrees) at 8 MPH (7 knots; 3.6 m/s)
Visibility: 6 or more miles (10+ km)
Ceiling: 3500 feet AGL
Clouds: overcast cloud deck at 3500 feet AGL
Weather: no significant weather forecast for this period
Text: FM301700 33007KT P6SM SCT130
Forecast period: 1700 UTC 30 October 2020 to 1200 UTC 31 October 2020
Forecast type: FROM: standard forecast or significant change
Winds: from the NNW (330 degrees) at 8 MPH (7 knots; 3.6 m/s)
Visibility: 6 or more miles (10+ km)
Ceiling: at least 12,000 feet AGL
Clouds: scattered clouds at 13000 feet AGL
Weather: no significant weather forecast for this period